sensor_id;sensor_type;location;lat;lon;timestamp;P1;durP1;ratioP1;P2;durP2;ratioP2
41221;SDS011;26952;42.884;23.918;2022-10-16T00:01:36;17.23;;;15.73;;
41221;SDS011;26952;42.884;23.918;2022-10-16T00:04:02;18.33;;;16.42;;
41221;SDS011;26952;42.884;23.918;2022-10-16T00:06:28;19.15;;;17.23;;
41221;SDS011;26952;42.884;23.918;2022-10-16T00:08:54;16.15;;;14.75;;
41221;SDS011;26952;42.884;23.918;2022-10-16T00:11:24;19.88;;;17.55;;
41221;SDS011;26952;42.884;23.918;2022-10-16T00:13:54;18.65;;;16.83;;
41221;SDS011;26952;42.884;23.918;2022-10-16T00:16:22;22.90;;;20.90;;
41221;SDS011;26952;42.884;23.918;2022-10-16T00:18:47;22.23;;;20.45;;
41221;SDS011;26952;42.884;23.918;2022-10-16T00:21:18;22.15;;;20.38;;
41221;SDS011;26952;42.884;23.918;2022-10-16T00:23:45;20.05;;;18.38;;
41221;SDS011;26952;42.884;23.918;2022-10-16T00:26:12;20.58;;;18.98;;
41221;SDS011;26952;42.884;23.918;2022-10-16T00:28:39;21.45;;;19.95;;
41221;SDS011;26952;42.884;23.918;2022-10-16T00:31:06;19.73;;;18.17;;
41221;SDS011;26952;42.884;23.918;2022-10-16T00:33:36;21.95;;;20.05;;
41221;SDS011;26952;42.884;23.918;2022-10-16T00:36:03;23.52;;;21.60;;
41221;SDS011;26952;42.884;23.918;2022-10-16T00:38:30;25.15;;;23.08;;
41221;SDS011;26952;42.884;23.918;2022-10-16T00:40:56;21.13;;;19.55;;
41221;SDS011;26952;42.884;23.918;2022-10-16T00:46:29;15.18;;;13.85;;
41221;SDS011;26952;42.884;23.918;2022-10-16T00:49:03;16.45;;;14.73;;
41221;SDS011;26952;42.884;23.918;2022-10-16T00:51:31;21.20;;;18.75;;
41221;SDS011;26952;42.884;23.918;2022-10-16T00:53:59;23.73;;;21.48;;
41221;SDS011;26952;42.884;23.918;2022-10-16T00:56:27;26.58;;;24.02;;
41221;SDS011;26952;42.884;23.918;2022-10-16T00:58:53;25.67;;;23.55;;
41221;SDS011;26952;42.884;23.918;2022-10-16T01:01:18;21.52;;;19.92;;
41221;SDS011;26952;42.884;23.918;2022-10-16T01:03:44;24.20;;;22.10;;
41221;SDS011;26952;42.884;23.918;2022-10-16T01:06:21;21.27;;;19.38;;
41221;SDS011;26952;42.884;23.918;2022-10-16T01:11:33;26.95;;;24.42;;
41221;SDS011;26952;42.884;23.918;2022-10-16T01:14:10;24.98;;;22.80;;
41221;SDS011;26952;42.884;23.918;2022-10-16T01:16:43;27.38;;;24.98;;
41221;SDS011;26952;42.884;23.918;2022-10-16T01:19:20;29.02;;;26.10;;
41221;SDS011;26952;42.884;23.918;2022-10-16T01:22:29;32.63;;;29.92;;
41221;SDS011;26952;42.884;23.918;2022-10-16T01:25:37;39.42;;;36.13;;
41221;SDS011;26952;42.884;23.918;2022-10-16T01:28:14;34.80;;;31.60;;
41221;SDS011;26952;42.884;23.918;2022-10-16T01:30:42;25.45;;;23.15;;
41221;SDS011;26952;42.884;23.918;2022-10-16T01:33:13;21.13;;;19.15;;
41221;SDS011;26952;42.884;23.918;2022-10-16T01:35:54;18.35;;;16.83;;
41221;SDS011;26952;42.884;23.918;2022-10-16T01:38:37;20.42;;;17.88;;
41221;SDS011;26952;42.884;23.918;2022-10-16T01:41:06;20.48;;;18.58;;
41221;SDS011;26952;42.884;23.918;2022-10-16T01:44:37;22.95;;;20.95;;
41221;SDS011;26952;42.884;23.918;2022-10-16T01:46:57;20.75;;;18.83;;
41221;SDS011;26952;42.884;23.918;2022-10-16T01:49:25;22.85;;;20.95;;
41221;SDS011;26952;42.884;23.918;2022-10-16T01:51:55;22.60;;;20.73;;
41221;SDS011;26952;42.884;23.918;2022-10-16T01:54:23;20.73;;;19.10;;
41221;SDS011;26952;42.884;23.918;2022-10-16T01:56:52;20.52;;;18.67;;
41221;SDS011;26952;42.884;23.918;2022-10-16T01:59:20;20.17;;;18.38;;
41221;SDS011;26952;42.884;23.918;2022-10-16T02:01:49;19.67;;;17.83;;
41221;SDS011;26952;42.884;23.918;2022-10-16T02:06:47;18.85;;;17.40;;
41221;SDS011;26952;42.884;23.918;2022-10-16T02:09:13;17.83;;;16.38;;
41221;SDS011;26952;42.884;23.918;2022-10-16T02:11:41;17.77;;;16.38;;
41221;SDS011;26952;42.884;23.918;2022-10-16T02:14:07;17.23;;;15.82;;
41221;SDS011;26952;42.884;23.918;2022-10-16T02:16:38;19.58;;;17.98;;
41221;SDS011;26952;42.884;23.918;2022-10-16T02:19:05;21.13;;;19.42;;
41221;SDS011;26952;42.884;23.918;2022-10-16T02:21:33;18.70;;;17.08;;
41221;SDS011;26952;42.884;23.918;2022-10-16T02:24:05;19.65;;;18.05;;
41221;SDS011;26952;42.884;23.918;2022-10-16T02:26:36;18.23;;;16.77;;
41221;SDS011;26952;42.884;23.918;2022-10-16T02:29:05;20.23;;;18.52;;
41221;SDS011;26952;42.884;23.918;2022-10-16T02:31:35;16.10;;;14.75;;
41221;SDS011;26952;42.884;23.918;2022-10-16T02:34:06;16.83;;;15.40;;
41221;SDS011;26952;42.884;23.918;2022-10-16T02:36:32;19.45;;;17.70;;
41221;SDS011;26952;42.884;23.918;2022-10-16T02:39:00;21.23;;;19.42;;
41221;SDS011;26952;42.884;23.918;2022-10-16T02:41:28;20.67;;;18.95;;
41221;SDS011;26952;42.884;23.918;2022-10-16T02:43:55;19.95;;;18.23;;
41221;SDS011;26952;42.884;23.918;2022-10-16T02:46:20;18.48;;;16.95;;
41221;SDS011;26952;42.884;23.918;2022-10-16T02:48:46;22.13;;;20.02;;
41221;SDS011;26952;42.884;23.918;2022-10-16T02:51:12;19.92;;;18.33;;
41221;SDS011;26952;42.884;23.918;2022-10-16T02:53:37;19.70;;;17.63;;
41221;SDS011;26952;42.884;23.918;2022-10-16T02:56:03;18.02;;;16.27;;
41221;SDS011;26952;42.884;23.918;2022-10-16T02:58:28;18.92;;;17.15;;
41221;SDS011;26952;42.884;23.918;2022-10-16T03:00:54;21.75;;;19.73;;
41221;SDS011;26952;42.884;23.918;2022-10-16T03:03:20;21.63;;;19.52;;
41221;SDS011;26952;42.884;23.918;2022-10-16T03:05:46;20.67;;;18.70;;
41221;SDS011;26952;42.884;23.918;2022-10-16T03:08:12;20.80;;;19.05;;
41221;SDS011;26952;42.884;23.918;2022-10-16T03:10:37;20.33;;;18.20;;
41221;SDS011;26952;42.884;23.918;2022-10-16T03:13:03;19.33;;;17.48;;
41221;SDS011;26952;42.884;23.918;2022-10-16T03:15:28;17.55;;;15.85;;
41221;SDS011;26952;42.884;23.918;2022-10-16T03:17:54;18.00;;;16.45;;
41221;SDS011;26952;42.884;23.918;2022-10-16T03:20:22;17.75;;;16.27;;
41221;SDS011;26952;42.884;23.918;2022-10-16T03:22:47;18.35;;;16.00;;
41221;SDS011;26952;42.884;23.918;2022-10-16T03:25:13;18.52;;;16.77;;
41221;SDS011;26952;42.884;23.918;2022-10-16T03:27:38;19.13;;;17.38;;
41221;SDS011;26952;42.884;23.918;2022-10-16T03:30:03;19.05;;;17.35;;
41221;SDS011;26952;42.884;23.918;2022-10-16T03:32:29;18.92;;;17.15;;
41221;SDS011;26952;42.884;23.918;2022-10-16T03:34:55;17.15;;;15.95;;
41221;SDS011;26952;42.884;23.918;2022-10-16T03:37:21;19.10;;;17.23;;
41221;SDS011;26952;42.884;23.918;2022-10-16T03:39:47;20.35;;;18.65;;
41221;SDS011;26952;42.884;23.918;2022-10-16T03:42:12;18.42;;;16.75;;
41221;SDS011;26952;42.884;23.918;2022-10-16T03:44:38;18.27;;;16.88;;
41221;SDS011;26952;42.884;23.918;2022-10-16T03:47:03;19.08;;;17.17;;
41221;SDS011;26952;42.884;23.918;2022-10-16T03:49:29;17.52;;;16.02;;
41221;SDS011;26952;42.884;23.918;2022-10-16T03:51:54;19.42;;;17.65;;
41221;SDS011;26952;42.884;23.918;2022-10-16T03:54:20;18.67;;;16.98;;
41221;SDS011;26952;42.884;23.918;2022-10-16T03:56:47;19.25;;;17.42;;
41221;SDS011;26952;42.884;23.918;2022-10-16T03:59:12;19.35;;;17.33;;
41221;SDS011;26952;42.884;23.918;2022-10-16T04:01:38;18.38;;;16.80;;
41221;SDS011;26952;42.884;23.918;2022-10-16T04:04:03;19.50;;;17.70;;
41221;SDS011;26952;42.884;23.918;2022-10-16T04:06:28;18.77;;;17.15;;
41221;SDS011;26952;42.884;23.918;2022-10-16T04:08:54;26.17;;;21.67;;
41221;SDS011;26952;42.884;23.918;2022-10-16T04:11:19;45.47;;;40.08;;
41221;SDS011;26952;42.884;23.918;2022-10-16T04:13:45;36.40;;;24.77;;
41221;SDS011;26952;42.884;23.918;2022-10-16T04:16:10;26.85;;;24.20;;
41221;SDS011;26952;42.884;23.918;2022-10-16T04:18:35;30.45;;;25.60;;
41221;SDS011;26952;42.884;23.918;2022-10-16T04:21:02;24.55;;;22.25;;
41221;SDS011;26952;42.884;23.918;2022-10-16T04:23:29;21.52;;;19.10;;
41221;SDS011;26952;42.884;23.918;2022-10-16T04:25:54;20.70;;;18.73;;
41221;SDS011;26952;42.884;23.918;2022-10-16T04:28:19;23.05;;;18.75;;
41221;SDS011;26952;42.884;23.918;2022-10-16T04:30:45;20.48;;;18.58;;
41221;SDS011;26952;42.884;23.918;2022-10-16T04:33:10;19.60;;;17.67;;
41221;SDS011;26952;42.884;23.918;2022-10-16T04:35:36;18.35;;;16.73;;
41221;SDS011;26952;42.884;23.918;2022-10-16T04:38:01;17.90;;;16.27;;
41221;SDS011;26952;42.884;23.918;2022-10-16T04:40:26;18.23;;;16.42;;
41221;SDS011;26952;42.884;23.918;2022-10-16T04:42:52;16.35;;;14.82;;
41221;SDS011;26952;42.884;23.918;2022-10-16T04:45:17;17.27;;;15.68;;
41221;SDS011;26952;42.884;23.918;2022-10-16T04:47:43;17.13;;;15.27;;
41221;SDS011;26952;42.884;23.918;2022-10-16T04:50:08;16.88;;;15.13;;
41221;SDS011;26952;42.884;23.918;2022-10-16T04:52:34;16.98;;;14.88;;
41221;SDS011;26952;42.884;23.918;2022-10-16T04:54:59;16.23;;;14.05;;
41221;SDS011;26952;42.884;23.918;2022-10-16T04:57:27;18.63;;;14.18;;
41221;SDS011;26952;42.884;23.918;2022-10-16T04:59:53;17.15;;;15.63;;
41221;SDS011;26952;42.884;23.918;2022-10-16T05:02:19;19.58;;;17.67;;
41221;SDS011;26952;42.884;23.918;2022-10-16T05:04:44;19.33;;;17.48;;
41221;SDS011;26952;42.884;23.918;2022-10-16T05:07:10;18.80;;;17.30;;
41221;SDS011;26952;42.884;23.918;2022-10-16T05:09:35;20.58;;;18.90;;
41221;SDS011;26952;42.884;23.918;2022-10-16T05:12:00;21.17;;;19.15;;
41221;SDS011;26952;42.884;23.918;2022-10-16T05:14:26;19.00;;;17.55;;
41221;SDS011;26952;42.884;23.918;2022-10-16T05:16:51;18.95;;;17.45;;
41221;SDS011;26952;42.884;23.918;2022-10-16T05:19:17;19.38;;;17.77;;
41221;SDS011;26952;42.884;23.918;2022-10-16T05:21:42;18.27;;;16.75;;
41221;SDS011;26952;42.884;23.918;2022-10-16T05:24:08;19.15;;;17.38;;
41221;SDS011;26952;42.884;23.918;2022-10-16T05:26:34;20.35;;;18.60;;
41221;SDS011;26952;42.884;23.918;2022-10-16T05:28:59;20.67;;;18.75;;
41221;SDS011;26952;42.884;23.918;2022-10-16T05:31:25;20.92;;;19.23;;
41221;SDS011;26952;42.884;23.918;2022-10-16T05:33:51;22.55;;;20.75;;
41221;SDS011;26952;42.884;23.918;2022-10-16T05:36:16;23.70;;;21.80;;
41221;SDS011;26952;42.884;23.918;2022-10-16T05:38:43;23.90;;;22.02;;
41221;SDS011;26952;42.884;23.918;2022-10-16T05:41:08;23.63;;;21.75;;
41221;SDS011;26952;42.884;23.918;2022-10-16T05:43:34;22.02;;;20.45;;
41221;SDS011;26952;42.884;23.918;2022-10-16T05:46:00;24.35;;;22.58;;
41221;SDS011;26952;42.884;23.918;2022-10-16T05:48:28;23.80;;;22.00;;
41221;SDS011;26952;42.884;23.918;2022-10-16T05:50:58;21.92;;;20.20;;
41221;SDS011;26952;42.884;23.918;2022-10-16T05:53:30;23.50;;;21.30;;
41221;SDS011;26952;42.884;23.918;2022-10-16T05:55:57;22.30;;;20.15;;
41221;SDS011;26952;42.884;23.918;2022-10-16T05:58:23;24.30;;;22.30;;
41221;SDS011;26952;42.884;23.918;2022-10-16T06:00:52;23.42;;;21.45;;
41221;SDS011;26952;42.884;23.918;2022-10-16T06:03:22;23.92;;;22.15;;
41221;SDS011;26952;42.884;23.918;2022-10-16T06:05:47;22.20;;;20.17;;
41221;SDS011;26952;42.884;23.918;2022-10-16T06:08:13;23.75;;;22.02;;
41221;SDS011;26952;42.884;23.918;2022-10-16T06:10:38;22.75;;;20.98;;
41221;SDS011;26952;42.884;23.918;2022-10-16T06:13:04;27.90;;;25.70;;
41221;SDS011;26952;42.884;23.918;2022-10-16T06:15:29;29.55;;;27.38;;
41221;SDS011;26952;42.884;23.918;2022-10-16T06:17:55;28.67;;;26.52;;
41221;SDS011;26952;42.884;23.918;2022-10-16T06:20:20;26.25;;;24.35;;
41221;SDS011;26952;42.884;23.918;2022-10-16T06:22:45;31.58;;;28.98;;
41221;SDS011;26952;42.884;23.918;2022-10-16T06:25:11;31.80;;;29.52;;
41221;SDS011;26952;42.884;23.918;2022-10-16T06:27:38;28.80;;;26.90;;
41221;SDS011;26952;42.884;23.918;2022-10-16T06:30:05;24.50;;;22.95;;
41221;SDS011;26952;42.884;23.918;2022-10-16T06:32:31;27.08;;;25.33;;
41221;SDS011;26952;42.884;23.918;2022-10-16T06:34:57;23.65;;;22.15;;
41221;SDS011;26952;42.884;23.918;2022-10-16T06:37:22;26.00;;;24.50;;
41221;SDS011;26952;42.884;23.918;2022-10-16T06:39:48;32.88;;;30.92;;
41221;SDS011;26952;42.884;23.918;2022-10-16T06:42:13;45.65;;;42.80;;
41221;SDS011;26952;42.884;23.918;2022-10-16T06:44:39;45.90;;;43.40;;
41221;SDS011;26952;42.884;23.918;2022-10-16T06:47:04;44.47;;;42.20;;
41221;SDS011;26952;42.884;23.918;2022-10-16T06:49:29;49.40;;;46.67;;
41221;SDS011;26952;42.884;23.918;2022-10-16T06:51:55;45.67;;;43.22;;
41221;SDS011;26952;42.884;23.918;2022-10-16T06:54:20;50.78;;;48.15;;
41221;SDS011;26952;42.884;23.918;2022-10-16T06:56:45;51.63;;;48.92;;
41221;SDS011;26952;42.884;23.918;2022-10-16T06:59:11;52.83;;;49.78;;
41221;SDS011;26952;42.884;23.918;2022-10-16T07:01:36;52.42;;;49.42;;
41221;SDS011;26952;42.884;23.918;2022-10-16T07:04:02;47.83;;;45.13;;
41221;SDS011;26952;42.884;23.918;2022-10-16T07:06:30;54.60;;;51.35;;
41221;SDS011;26952;42.884;23.918;2022-10-16T07:08:57;84.68;;;76.65;;
41221;SDS011;26952;42.884;23.918;2022-10-16T07:11:23;73.85;;;67.25;;
41221;SDS011;26952;42.884;23.918;2022-10-16T07:13:49;75.70;;;69.18;;
41221;SDS011;26952;42.884;23.918;2022-10-16T07:16:16;59.65;;;56.00;;
41221;SDS011;26952;42.884;23.918;2022-10-16T07:18:44;84.55;;;76.70;;
41221;SDS011;26952;42.884;23.918;2022-10-16T07:21:30;148.68;;;118.22;;
41221;SDS011;26952;42.884;23.918;2022-10-16T07:24:00;125.75;;;100.72;;
41221;SDS011;26952;42.884;23.918;2022-10-16T07:26:27;96.70;;;86.95;;
41221;SDS011;26952;42.884;23.918;2022-10-16T07:28:55;42.67;;;39.85;;
41221;SDS011;26952;42.884;23.918;2022-10-16T07:31:21;44.97;;;42.22;;
41221;SDS011;26952;42.884;23.918;2022-10-16T07:33:47;52.80;;;49.55;;
41221;SDS011;26952;42.884;23.918;2022-10-16T07:36:14;51.35;;;48.40;;
41221;SDS011;26952;42.884;23.918;2022-10-16T07:38:41;57.63;;;54.33;;
41221;SDS011;26952;42.884;23.918;2022-10-16T07:41:08;61.35;;;58.00;;
41221;SDS011;26952;42.884;23.918;2022-10-16T07:43:35;54.53;;;51.25;;
41221;SDS011;26952;42.884;23.918;2022-10-16T07:46:01;55.63;;;52.40;;
41221;SDS011;26952;42.884;23.918;2022-10-16T07:48:28;76.45;;;72.47;;
41221;SDS011;26952;42.884;23.918;2022-10-16T07:50:59;54.20;;;51.22;;
41221;SDS011;26952;42.884;23.918;2022-10-16T07:55:52;67.93;;;64.22;;
41221;SDS011;26952;42.884;23.918;2022-10-16T07:58:17;84.75;;;79.97;;
41221;SDS011;26952;42.884;23.918;2022-10-16T08:00:43;87.38;;;82.55;;
41221;SDS011;26952;42.884;23.918;2022-10-16T08:03:08;83.85;;;79.35;;
41221;SDS011;26952;42.884;23.918;2022-10-16T08:05:34;90.43;;;85.38;;
41221;SDS011;26952;42.884;23.918;2022-10-16T08:07:59;88.28;;;83.35;;
41221;SDS011;26952;42.884;23.918;2022-10-16T08:10:27;91.50;;;86.18;;
41221;SDS011;26952;42.884;23.918;2022-10-16T08:12:53;80.50;;;76.30;;
41221;SDS011;26952;42.884;23.918;2022-10-16T08:15:19;76.47;;;72.50;;
41221;SDS011;26952;42.884;23.918;2022-10-16T08:17:45;59.15;;;55.92;;
41221;SDS011;26952;42.884;23.918;2022-10-16T08:20:19;61.95;;;58.05;;
41221;SDS011;26952;42.884;23.918;2022-10-16T08:22:44;65.93;;;62.17;;
41221;SDS011;26952;42.884;23.918;2022-10-16T08:25:10;57.20;;;54.00;;
41221;SDS011;26952;42.884;23.918;2022-10-16T08:27:35;45.35;;;42.60;;
41221;SDS011;26952;42.884;23.918;2022-10-16T08:30:01;49.05;;;45.97;;
41221;SDS011;26952;42.884;23.918;2022-10-16T08:32:26;41.33;;;38.83;;
41221;SDS011;26952;42.884;23.918;2022-10-16T08:34:51;45.78;;;42.92;;
41221;SDS011;26952;42.884;23.918;2022-10-16T08:37:17;53.83;;;50.38;;
41221;SDS011;26952;42.884;23.918;2022-10-16T08:39:42;50.58;;;47.78;;
41221;SDS011;26952;42.884;23.918;2022-10-16T08:42:56;51.33;;;48.42;;
41221;SDS011;26952;42.884;23.918;2022-10-16T08:47:54;38.10;;;35.60;;
41221;SDS011;26952;42.884;23.918;2022-10-16T08:50:37;34.83;;;32.70;;
41221;SDS011;26952;42.884;23.918;2022-10-16T08:53:05;48.78;;;46.10;;
41221;SDS011;26952;42.884;23.918;2022-10-16T08:58:16;48.50;;;45.53;;
41221;SDS011;26952;42.884;23.918;2022-10-16T09:00:44;57.72;;;54.60;;
41221;SDS011;26952;42.884;23.918;2022-10-16T09:19:58;39.35;;;37.17;;
41221;SDS011;26952;42.884;23.918;2022-10-16T09:22:34;37.75;;;35.67;;
41221;SDS011;26952;42.884;23.918;2022-10-16T09:25:00;42.63;;;40.25;;
41221;SDS011;26952;42.884;23.918;2022-10-16T09:27:37;45.38;;;42.90;;
41221;SDS011;26952;42.884;23.918;2022-10-16T09:30:26;60.90;;;57.55;;
41221;SDS011;26952;42.884;23.918;2022-10-16T09:32:51;49.65;;;46.85;;
41221;SDS011;26952;42.884;23.918;2022-10-16T09:35:31;34.00;;;31.92;;
41221;SDS011;26952;42.884;23.918;2022-10-16T09:38:01;25.25;;;23.73;;
41221;SDS011;26952;42.884;23.918;2022-10-16T09:40:36;22.73;;;21.20;;
41221;SDS011;26952;42.884;23.918;2022-10-16T09:45:53;27.35;;;25.60;;
41221;SDS011;26952;42.884;23.918;2022-10-16T09:48:47;24.02;;;22.60;;
41221;SDS011;26952;42.884;23.918;2022-10-16T09:51:27;31.42;;;29.48;;
41221;SDS011;26952;42.884;23.918;2022-10-16T09:53:58;40.30;;;38.03;;
41221;SDS011;26952;42.884;23.918;2022-10-16T09:56:27;34.08;;;32.13;;
41221;SDS011;26952;42.884;23.918;2022-10-16T09:58:53;38.58;;;36.45;;
41221;SDS011;26952;42.884;23.918;2022-10-16T10:01:21;42.50;;;40.13;;
41221;SDS011;26952;42.884;23.918;2022-10-16T10:03:55;47.83;;;45.30;;
41221;SDS011;26952;42.884;23.918;2022-10-16T10:06:36;42.40;;;40.15;;
41221;SDS011;26952;42.884;23.918;2022-10-16T10:14:21;38.40;;;36.30;;
41221;SDS011;26952;42.884;23.918;2022-10-16T10:17:01;34.83;;;32.80;;
41221;SDS011;26952;42.884;23.918;2022-10-16T10:19:42;31.42;;;29.83;;
41221;SDS011;26952;42.884;23.918;2022-10-16T10:22:22;32.42;;;30.73;;
41221;SDS011;26952;42.884;23.918;2022-10-16T10:30:25;29.90;;;28.00;;
41221;SDS011;26952;42.884;23.918;2022-10-16T10:43:33;41.72;;;39.53;;
41221;SDS011;26952;42.884;23.918;2022-10-16T10:46:22;40.33;;;38.13;;
41221;SDS011;26952;42.884;23.918;2022-10-16T10:54:20;44.10;;;41.83;;
41221;SDS011;26952;42.884;23.918;2022-10-16T10:57:06;31.23;;;29.53;;
41221;SDS011;26952;42.884;23.918;2022-10-16T11:02:41;32.08;;;30.23;;
41221;SDS011;26952;42.884;23.918;2022-10-16T11:05:30;30.15;;;28.50;;
41221;SDS011;26952;42.884;23.918;2022-10-16T11:08:27;28.40;;;26.80;;
41221;SDS011;26952;42.884;23.918;2022-10-16T11:11:18;27.38;;;25.80;;
41221;SDS011;26952;42.884;23.918;2022-10-16T11:13:58;20.05;;;18.98;;
41221;SDS011;26952;42.884;23.918;2022-10-16T11:17:28;27.67;;;26.17;;
41221;SDS011;26952;42.884;23.918;2022-10-16T11:19:45;33.28;;;31.35;;
41221;SDS011;26952;42.884;23.918;2022-10-16T11:22:34;32.03;;;30.20;;
41221;SDS011;26952;42.884;23.918;2022-10-16T11:25:12;29.70;;;28.02;;
41221;SDS011;26952;42.884;23.918;2022-10-16T11:27:54;31.75;;;29.80;;
41221;SDS011;26952;42.884;23.918;2022-10-16T11:30:30;38.67;;;36.63;;
41221;SDS011;26952;42.884;23.918;2022-10-16T11:41:41;27.55;;;26.05;;
41221;SDS011;26952;42.884;23.918;2022-10-16T11:46:58;33.47;;;31.67;;
41221;SDS011;26952;42.884;23.918;2022-10-16T11:49:26;32.83;;;31.15;;
41221;SDS011;26952;42.884;23.918;2022-10-16T11:51:59;27.70;;;26.08;;
41221;SDS011;26952;42.884;23.918;2022-10-16T11:54:49;27.20;;;25.70;;
41221;SDS011;26952;42.884;23.918;2022-10-16T11:57:37;26.80;;;25.25;;
41221;SDS011;26952;42.884;23.918;2022-10-16T12:02:51;25.35;;;23.85;;
41221;SDS011;26952;42.884;23.918;2022-10-16T12:05:25;20.15;;;19.05;;
41221;SDS011;26952;42.884;23.918;2022-10-16T12:08:01;17.35;;;16.25;;
41221;SDS011;26952;42.884;23.918;2022-10-16T12:10:33;19.65;;;18.60;;
41221;SDS011;26952;42.884;23.918;2022-10-16T12:13:02;23.60;;;22.10;;
41221;SDS011;26952;42.884;23.918;2022-10-16T12:15:32;21.52;;;20.38;;
41221;SDS011;26952;42.884;23.918;2022-10-16T12:17:58;25.75;;;24.35;;
41221;SDS011;26952;42.884;23.918;2022-10-16T12:20:29;17.83;;;16.92;;
41221;SDS011;26952;42.884;23.918;2022-10-16T12:22:58;19.17;;;18.13;;
41221;SDS011;26952;42.884;23.918;2022-10-16T12:25:32;23.55;;;22.00;;
41221;SDS011;26952;42.884;23.918;2022-10-16T12:28:17;20.45;;;19.27;;
41221;SDS011;26952;42.884;23.918;2022-10-16T12:30:55;18.77;;;17.50;;
41221;SDS011;26952;42.884;23.918;2022-10-16T12:33:28;21.33;;;20.15;;
41221;SDS011;26952;42.884;23.918;2022-10-16T12:35:56;25.20;;;23.80;;
41221;SDS011;26952;42.884;23.918;2022-10-16T12:41:25;18.45;;;17.45;;
41221;SDS011;26952;42.884;23.918;2022-10-16T12:43:52;18.35;;;17.25;;
41221;SDS011;26952;42.884;23.918;2022-10-16T12:48:43;17.02;;;16.13;;
41221;SDS011;26952;42.884;23.918;2022-10-16T12:51:11;16.85;;;15.75;;
41221;SDS011;26952;42.884;23.918;2022-10-16T12:53:46;17.10;;;15.90;;
41221;SDS011;26952;42.884;23.918;2022-10-16T12:56:40;17.30;;;16.25;;
41221;SDS011;26952;42.884;23.918;2022-10-16T12:59:09;18.08;;;17.15;;
41221;SDS011;26952;42.884;23.918;2022-10-16T13:09:56;19.45;;;18.42;;
41221;SDS011;26952;42.884;23.918;2022-10-16T13:18:16;21.80;;;20.58;;
41221;SDS011;26952;42.884;23.918;2022-10-16T13:23:41;21.60;;;20.23;;
41221;SDS011;26952;42.884;23.918;2022-10-16T13:28:40;24.90;;;23.63;;
41221;SDS011;26952;42.884;23.918;2022-10-16T13:31:09;26.13;;;24.65;;
41221;SDS011;26952;42.884;23.918;2022-10-16T13:33:43;33.22;;;31.52;;
41221;SDS011;26952;42.884;23.918;2022-10-16T13:36:20;36.00;;;34.10;;
41221;SDS011;26952;42.884;23.918;2022-10-16T13:39:13;31.42;;;29.85;;
41221;SDS011;26952;42.884;23.918;2022-10-16T13:41:39;28.88;;;27.38;;
41221;SDS011;26952;42.884;23.918;2022-10-16T13:44:05;25.15;;;23.70;;
41221;SDS011;26952;42.884;23.918;2022-10-16T13:46:38;32.33;;;30.55;;
41221;SDS011;26952;42.884;23.918;2022-10-16T13:49:04;33.60;;;31.77;;
41221;SDS011;26952;42.884;23.918;2022-10-16T13:51:31;31.98;;;30.27;;
41221;SDS011;26952;42.884;23.918;2022-10-16T13:53:58;32.60;;;30.83;;
41221;SDS011;26952;42.884;23.918;2022-10-16T13:56:31;32.03;;;30.35;;
41221;SDS011;26952;42.884;23.918;2022-10-16T13:59:01;30.83;;;29.02;;
41221;SDS011;26952;42.884;23.918;2022-10-16T14:01:35;40.65;;;38.05;;
41221;SDS011;26952;42.884;23.918;2022-10-16T14:04:09;38.15;;;36.17;;
41221;SDS011;26952;42.884;23.918;2022-10-16T14:06:40;39.63;;;37.63;;
41221;SDS011;26952;42.884;23.918;2022-10-16T14:11:51;42.58;;;40.33;;
41221;SDS011;26952;42.884;23.918;2022-10-16T14:14:22;44.00;;;41.72;;
41221;SDS011;26952;42.884;23.918;2022-10-16T14:16:48;50.10;;;47.40;;
41221;SDS011;26952;42.884;23.918;2022-10-16T14:19:35;45.88;;;43.53;;
41221;SDS011;26952;42.884;23.918;2022-10-16T14:22:00;52.05;;;48.85;;
41221;SDS011;26952;42.884;23.918;2022-10-16T14:24:31;54.88;;;51.42;;
41221;SDS011;26952;42.884;23.918;2022-10-16T14:26:58;42.30;;;40.03;;
41221;SDS011;26952;42.884;23.918;2022-10-16T14:29:25;34.45;;;32.60;;
41221;SDS011;26952;42.884;23.918;2022-10-16T14:34:25;21.02;;;19.65;;
41221;SDS011;26952;42.884;23.918;2022-10-16T14:36:53;23.73;;;21.88;;
41221;SDS011;26952;42.884;23.918;2022-10-16T14:39:22;30.52;;;28.85;;
41221;SDS011;26952;42.884;23.918;2022-10-16T14:41:49;28.27;;;26.65;;
41221;SDS011;26952;42.884;23.918;2022-10-16T14:44:17;22.63;;;21.30;;
41221;SDS011;26952;42.884;23.918;2022-10-16T14:46:44;26.17;;;24.75;;
41221;SDS011;26952;42.884;23.918;2022-10-16T14:51:39;30.77;;;29.10;;
41221;SDS011;26952;42.884;23.918;2022-10-16T14:54:07;28.60;;;26.90;;
41221;SDS011;26952;42.884;23.918;2022-10-16T14:56:45;30.60;;;28.95;;
41221;SDS011;26952;42.884;23.918;2022-10-16T14:59:13;33.35;;;31.45;;
41221;SDS011;26952;42.884;23.918;2022-10-16T15:01:42;37.33;;;35.25;;
41221;SDS011;26952;42.884;23.918;2022-10-16T15:04:09;33.92;;;31.75;;
41221;SDS011;26952;42.884;23.918;2022-10-16T15:06:37;29.95;;;28.25;;
41221;SDS011;26952;42.884;23.918;2022-10-16T15:09:02;26.33;;;24.83;;
41221;SDS011;26952;42.884;23.918;2022-10-16T15:11:28;21.65;;;20.05;;
41221;SDS011;26952;42.884;23.918;2022-10-16T15:13:56;20.13;;;18.83;;
41221;SDS011;26952;42.884;23.918;2022-10-16T15:16:21;19.33;;;17.83;;
41221;SDS011;26952;42.884;23.918;2022-10-16T15:18:47;21.92;;;20.20;;
41221;SDS011;26952;42.884;23.918;2022-10-16T15:21:21;19.55;;;18.35;;
41221;SDS011;26952;42.884;23.918;2022-10-16T15:23:50;16.67;;;15.45;;
41221;SDS011;26952;42.884;23.918;2022-10-16T15:26:18;22.95;;;21.58;;
41221;SDS011;26952;42.884;23.918;2022-10-16T15:28:43;31.65;;;29.92;;
41221;SDS011;26952;42.884;23.918;2022-10-16T15:31:09;40.50;;;38.22;;
41221;SDS011;26952;42.884;23.918;2022-10-16T15:33:34;45.65;;;42.78;;
41221;SDS011;26952;42.884;23.918;2022-10-16T15:36:00;48.05;;;45.00;;
41221;SDS011;26952;42.884;23.918;2022-10-16T15:38:27;43.72;;;41.38;;
41221;SDS011;26952;42.884;23.918;2022-10-16T15:40:53;40.45;;;38.25;;
41221;SDS011;26952;42.884;23.918;2022-10-16T15:43:18;39.78;;;37.47;;
41221;SDS011;26952;42.884;23.918;2022-10-16T15:45:44;37.25;;;35.05;;
41221;SDS011;26952;42.884;23.918;2022-10-16T15:48:23;26.10;;;24.40;;
41221;SDS011;26952;42.884;23.918;2022-10-16T15:50:48;31.27;;;29.58;;
41221;SDS011;26952;42.884;23.918;2022-10-16T15:53:13;29.95;;;27.88;;
41221;SDS011;26952;42.884;23.918;2022-10-16T15:55:39;30.27;;;27.95;;
41221;SDS011;26952;42.884;23.918;2022-10-16T15:58:04;28.95;;;27.33;;
41221;SDS011;26952;42.884;23.918;2022-10-16T16:00:30;32.78;;;30.88;;
41221;SDS011;26952;42.884;23.918;2022-10-16T16:02:56;30.35;;;28.38;;
41221;SDS011;26952;42.884;23.918;2022-10-16T16:05:21;27.27;;;25.52;;
41221;SDS011;26952;42.884;23.918;2022-10-16T16:07:47;28.23;;;26.40;;
41221;SDS011;26952;42.884;23.918;2022-10-16T16:10:13;30.92;;;29.02;;
41221;SDS011;26952;42.884;23.918;2022-10-16T16:12:39;29.65;;;27.73;;
41221;SDS011;26952;42.884;23.918;2022-10-16T16:15:05;29.25;;;27.10;;